sensor_id;sensor_type;location;lat;lon;timestamp;pressure;altitude;pressure_sealevel;temperature;humidity
8697;BME280;4385;48.848;8.924;2023-05-01T00:01:23;97344.34;;;19.19;100.00
8697;BME280;4385;48.848;8.924;2023-05-01T00:03:49;97339.28;;;19.18;100.00
8697;BME280;4385;48.848;8.924;2023-05-01T00:06:14;97333.31;;;19.19;100.00
8697;BME280;4385;48.848;8.924;2023-05-01T00:08:39;97340.97;;;19.19;100.00
8697;BME280;4385;48.848;8.924;2023-05-01T00:11:05;97335.88;;;19.19;100.00
8697;BME280;4385;48.848;8.924;2023-05-01T00:13:50;97334.19;;;19.18;100.00
8697;BME280;4385;48.848;8.924;2023-05-01T00:16:16;97327.41;;;19.17;100.00
8697;BME280;4385;48.848;8.924;2023-05-01T00:18:41;97328.28;;;19.16;100.00
8697;BME280;4385;48.848;8.924;2023-05-01T00:21:07;97325.75;;;19.16;100.00
8697;BME280;4385;48.848;8.924;2023-05-01T00:23:33;97324.94;;;19.14;100.00
8697;BME280;4385;48.848;8.924;2023-05-01T00:25:58;97319.81;;;19.14;100.00
8697;BME280;4385;48.848;8.924;2023-05-01T00:28:23;97320.72;;;19.13;100.00
8697;BME280;4385;48.848;8.924;2023-05-01T00:30:48;97315.66;;;19.11;100.00
8697;BME280;4385;48.848;8.924;2023-05-01T00:33:14;97320.75;;;19.11;100.00
8697;BME280;4385;48.848;8.924;2023-05-01T00:35:42;97308.03;;;19.10;100.00
8697;BME280;4385;48.848;8.924;2023-05-01T00:38:08;97310.59;;;19.10;100.00
8697;BME280;4385;48.848;8.924;2023-05-01T00:40:40;97307.19;;;19.07;100.00
8697;BME280;4385;48.848;8.924;2023-05-01T00:43:06;97310.63;;;19.06;100.00
8697;BME280;4385;48.848;8.924;2023-05-01T00:45:32;97302.97;;;19.06;100.00
8697;BME280;4385;48.848;8.924;2023-05-01T00:47:57;97297.91;;;19.05;100.00
8697;BME280;4385;48.848;8.924;2023-05-01T00:50:22;97301.31;;;19.04;100.00
8697;BME280;4385;48.848;8.924;2023-05-01T00:52:47;97298.78;;;19.04;100.00
8697;BME280;4385;48.848;8.924;2023-05-01T00:55:13;97290.34;;;19.02;100.00
8697;BME280;4385;48.848;8.924;2023-05-01T00:57:38;97290.38;;;19.00;100.00
8697;BME280;4385;48.848;8.924;2023-05-01T01:00:04;97293.78;;;18.99;100.00
8697;BME280;4385;48.848;8.924;2023-05-01T01:02:30;97290.41;;;18.99;100.00
8697;BME280;4385;48.848;8.924;2023-05-01T01:04:56;97287.91;;;18.97;100.00
8697;BME280;4385;48.848;8.924;2023-05-01T01:07:31;97277.75;;;18.96;100.00
8697;BME280;4385;48.848;8.924;2023-05-01T01:10:15;97274.34;;;18.95;100.00
8697;BME280;4385;48.848;8.924;2023-05-01T01:15:34;97266.69;;;18.95;100.00
8697;BME280;4385;48.848;8.924;2023-05-01T01:21:11;97260.72;;;18.94;100.00
8697;BME280;4385;48.848;8.924;2023-05-01T01:24:34;97255.66;;;18.93;100.00
8697;BME280;4385;48.848;8.924;2023-05-01T01:30:17;97256.56;;;18.92;100.00
8697;BME280;4385;48.848;8.924;2023-05-01T01:35:53;97249.81;;;18.89;100.00
8697;BME280;4385;48.848;8.924;2023-05-01T01:38:22;97254.09;;;18.89;100.00
8697;BME280;4385;48.848;8.924;2023-05-01T01:41:04;97250.72;;;18.87;100.00
8697;BME280;4385;48.848;8.924;2023-05-01T01:43:37;97244.84;;;18.85;100.00
8697;BME280;4385;48.848;8.924;2023-05-01T01:46:05;97245.69;;;18.84;100.00
8697;BME280;4385;48.848;8.924;2023-05-01T01:48:35;97245.69;;;18.84;100.00
8697;BME280;4385;48.848;8.924;2023-05-01T01:51:06;97246.59;;;18.82;100.00
8697;BME280;4385;48.848;8.924;2023-05-01T01:53:33;97248.25;;;18.84;100.00
8697;BME280;4385;48.848;8.924;2023-05-01T01:56:02;97238.97;;;18.81;100.00
8697;BME280;4385;48.848;8.924;2023-05-01T01:58:34;97244.94;;;18.81;100.00
8697;BME280;4385;48.848;8.924;2023-05-01T02:01:01;97239.81;;;18.81;100.00
8697;BME280;4385;48.848;8.924;2023-05-01T02:03:28;97240.63;;;18.82;100.00
8697;BME280;4385;48.848;8.924;2023-05-01T02:05:55;97240.63;;;18.82;100.00
8697;BME280;4385;48.848;8.924;2023-05-01T02:08:23;97239.81;;;18.81;100.00
8697;BME280;4385;48.848;8.924;2023-05-01T02:10:49;97238.13;;;18.80;100.00
8697;BME280;4385;48.848;8.924;2023-05-01T02:13:16;97233.03;;;18.80;100.00
8697;BME280;4385;48.848;8.924;2023-05-01T02:15:43;97226.25;;;18.79;100.00
8697;BME280;4385;48.848;8.924;2023-05-01T02:18:10;97229.69;;;18.78;100.00
8697;BME280;4385;48.848;8.924;2023-05-01T02:20:37;97231.38;;;18.79;100.00
8697;BME280;4385;48.848;8.924;2023-05-01T02:23:02;97229.69;;;18.78;100.00
8697;BME280;4385;48.848;8.924;2023-05-01T02:25:30;97234.81;;;18.78;100.00
8697;BME280;4385;48.848;8.924;2023-05-01T02:28:01;97226.34;;;18.76;100.00
8697;BME280;4385;48.848;8.924;2023-05-01T02:30:27;97222.13;;;18.75;100.00
8697;BME280;4385;48.848;8.924;2023-05-01T02:32:53;97223.78;;;18.76;100.00
8697;BME280;4385;48.848;8.924;2023-05-01T02:35:18;97221.25;;;18.76;100.00
8697;BME280;4385;48.848;8.924;2023-05-01T02:37:44;97220.34;;;18.77;100.00
8697;BME280;4385;48.848;8.924;2023-05-01T02:40:11;97220.34;;;18.77;100.00
8697;BME280;4385;48.848;8.924;2023-05-01T02:42:37;97213.56;;;18.76;100.00
8697;BME280;4385;48.848;8.924;2023-05-01T02:45:05;97215.28;;;18.76;100.00
8697;BME280;4385;48.848;8.924;2023-05-01T02:47:37;97215.25;;;18.77;100.00
8697;BME280;4385;48.848;8.924;2023-05-01T02:50:04;97212.72;;;18.76;100.00
8697;BME280;4385;48.848;8.924;2023-05-01T02:52:30;97211.06;;;18.75;100.00
8697;BME280;4385;48.848;8.924;2023-05-01T02:54:56;97203.47;;;18.73;100.00
8697;BME280;4385;48.848;8.924;2023-05-01T02:57:21;97202.56;;;18.74;100.00
8697;BME280;4385;48.848;8.924;2023-05-01T02:59:47;97210.25;;;18.73;100.00
8697;BME280;4385;48.848;8.924;2023-05-01T03:02:12;97207.75;;;18.71;100.00
8697;BME280;4385;48.848;8.924;2023-05-01T03:04:38;97205.19;;;18.71;100.00
8697;BME280;4385;48.848;8.924;2023-05-01T03:07:03;97200.13;;;18.69;100.00
8697;BME280;4385;48.848;8.924;2023-05-01T03:09:29;97197.59;;;18.69;100.00
8697;BME280;4385;48.848;8.924;2023-05-01T03:11:55;97203.53;;;18.70;100.00
8697;BME280;4385;48.848;8.924;2023-05-01T03:14:20;97200.19;;;18.68;100.00
8697;BME280;4385;48.848;8.924;2023-05-01T03:16:46;97202.72;;;18.68;100.00
8697;BME280;4385;48.848;8.924;2023-05-01T03:19:11;97191.66;;;18.69;100.00
8697;BME280;4385;48.848;8.924;2023-05-01T03:21:36;97195.06;;;18.68;100.00
8697;BME280;4385;48.848;8.924;2023-05-01T03:24:02;97192.53;;;18.68;100.00
8697;BME280;4385;48.848;8.924;2023-05-01T03:26:27;97187.41;;;18.68;100.00
8697;BME280;4385;48.848;8.924;2023-05-01T03:28:54;97196.81;;;18.67;100.00
8697;BME280;4385;48.848;8.924;2023-05-01T03:31:19;97195.16;;;18.65;100.00
8697;BME280;4385;48.848;8.924;2023-05-01T03:33:44;97190.94;;;18.64;100.00
8697;BME280;4385;48.848;8.924;2023-05-01T03:36:10;97185.84;;;18.64;100.00
8697;BME280;4385;48.848;8.924;2023-05-01T03:38:35;97185.84;;;18.64;100.00
8697;BME280;4385;48.848;8.924;2023-05-01T03:41:01;97183.34;;;18.62;100.00
8697;BME280;4385;48.848;8.924;2023-05-01T03:43:26;97185.03;;;18.62;100.00
8697;BME280;4385;48.848;8.924;2023-05-01T03:45:51;97185.94;;;18.61;100.00
8697;BME280;4385;48.848;8.924;2023-05-01T03:48:18;97179.16;;;18.60;100.00
8697;BME280;4385;48.848;8.924;2023-05-01T03:50:43;97181.72;;;18.60;100.00
8697;BME280;4385;48.848;8.924;2023-05-01T03:53:09;97180.03;;;18.59;100.00
8697;BME280;4385;48.848;8.924;2023-05-01T03:55:34;97175.81;;;18.57;100.00
8697;BME280;4385;48.848;8.924;2023-05-01T03:57:59;97175.81;;;18.57;100.00
8697;BME280;4385;48.848;8.924;2023-05-01T04:00:25;97178.34;;;18.57;100.00
8697;BME280;4385;48.848;8.924;2023-05-01T04:02:51;97177.50;;;18.57;100.00
8697;BME280;4385;48.848;8.924;2023-05-01T04:05:17;97177.50;;;18.57;100.00
8697;BME280;4385;48.848;8.924;2023-05-01T04:07:42;97178.34;;;18.57;100.00
8697;BME280;4385;48.848;8.924;2023-05-01T04:10:08;97180.91;;;18.57;100.00
8697;BME280;4385;48.848;8.924;2023-05-01T04:12:34;97178.34;;;18.57;100.00
8697;BME280;4385;48.848;8.924;2023-05-01T04:14:59;97179.25;;;18.56;100.00
8697;BME280;4385;48.848;8.924;2023-05-01T04:17:25;97175.81;;;18.57;100.00
8697;BME280;4385;48.848;8.924;2023-05-01T04:19:50;97173.25;;;18.57;100.00
8697;BME280;4385;48.848;8.924;2023-05-01T04:22:15;97172.44;;;18.55;100.00
8697;BME280;4385;48.848;8.924;2023-05-01T04:24:41;97167.34;;;18.55;100.00
8697;BME280;4385;48.848;8.924;2023-05-01T04:27:06;97171.63;;;18.55;100.00
8697;BME280;4385;48.848;8.924;2023-05-01T04:29:32;97169.09;;;18.55;100.00
8697;BME280;4385;48.848;8.924;2023-05-01T04:31:58;97170.78;;;18.54;100.00
8697;BME280;4385;48.848;8.924;2023-05-01T04:34:23;97171.69;;;18.53;100.00
8697;BME280;4385;48.848;8.924;2023-05-01T04:36:48;97169.13;;;18.53;100.00
8697;BME280;4385;48.848;8.924;2023-05-01T04:39:15;97167.44;;;18.52;100.00
8697;BME280;4385;48.848;8.924;2023-05-01T04:41:40;97172.53;;;18.52;100.00
8697;BME280;4385;48.848;8.924;2023-05-01T04:44:05;97180.19;;;18.52;100.00
8697;BME280;4385;48.848;8.924;2023-05-01T04:46:31;97179.34;;;18.53;100.00
8697;BME280;4385;48.848;8.924;2023-05-01T04:48:57;97173.44;;;18.51;100.00
8697;BME280;4385;48.848;8.924;2023-05-01T04:51:22;97166.63;;;18.52;100.00
8697;BME280;4385;48.848;8.924;2023-05-01T04:53:48;97181.09;;;18.51;100.00
8697;BME280;4385;48.848;8.924;2023-05-01T04:56:13;97177.63;;;18.52;100.00
8697;BME280;4385;48.848;8.924;2023-05-01T04:58:38;97181.09;;;18.51;100.00
8697;BME280;4385;48.848;8.924;2023-05-01T05:01:03;97171.75;;;18.50;100.00
8697;BME280;4385;48.848;8.924;2023-05-01T05:03:29;97177.69;;;18.51;100.00
8697;BME280;4385;48.848;8.924;2023-05-01T05:05:54;97176.03;;;18.50;100.00
8697;BME280;4385;48.848;8.924;2023-05-01T05:08:19;97181.16;;;18.48;100.00
8697;BME280;4385;48.848;8.924;2023-05-01T05:10:45;97175.22;;;18.48;100.00
8697;BME280;4385;48.848;8.924;2023-05-01T05:13:10;97173.56;;;18.47;100.00
8697;BME280;4385;48.848;8.924;2023-05-01T05:15:35;97178.66;;;18.47;100.00
8697;BME280;4385;48.848;8.924;2023-05-01T05:18:00;97175.25;;;18.46;100.00
8697;BME280;4385;48.848;8.924;2023-05-01T05:20:26;97175.25;;;18.46;100.00
8697;BME280;4385;48.848;8.924;2023-05-01T05:22:52;97168.50;;;18.45;100.00
8697;BME280;4385;48.848;8.924;2023-05-01T05:25:17;97171.88;;;18.46;100.00
8697;BME280;4385;48.848;8.924;2023-05-01T05:27:43;97176.16;;;18.45;100.00
8697;BME280;4385;48.848;8.924;2023-05-01T05:30:08;97177.84;;;18.44;100.00
8697;BME280;4385;48.848;8.924;2023-05-01T05:32:34;97180.41;;;18.44;100.00
8697;BME280;4385;48.848;8.924;2023-05-01T05:34:59;97185.50;;;18.44;100.00
8697;BME280;4385;48.848;8.924;2023-05-01T05:37:25;97183.00;;;18.43;100.00
8697;BME280;4385;48.848;8.924;2023-05-01T05:39:51;97177.88;;;18.43;100.00
8697;BME280;4385;48.848;8.924;2023-05-01T05:42:16;97172.78;;;18.43;100.00
8697;BME280;4385;48.848;8.924;2023-05-01T05:44:42;97171.97;;;18.42;100.00
8697;BME280;4385;48.848;8.924;2023-05-01T05:47:07;97178.78;;;18.42;100.00
8697;BME280;4385;48.848;8.924;2023-05-01T05:49:32;97176.22;;;18.42;100.00
8697;BME280;4385;48.848;8.924;2023-05-01T05:51:57;97179.59;;;18.44;100.00
8697;BME280;4385;48.848;8.924;2023-05-01T05:54:23;97177.88;;;18.43;100.00
8697;BME280;4385;48.848;8.924;2023-05-01T05:56:48;97181.34;;;18.42;100.00
8697;BME280;4385;48.848;8.924;2023-05-01T05:59:13;97175.38;;;18.41;100.00
8697;BME280;4385;48.848;8.924;2023-05-01T06:01:39;97178.78;;;18.42;100.00
8697;BME280;4385;48.848;8.924;2023-05-01T06:04:05;97177.06;;;18.42;100.00
8697;BME280;4385;48.848;8.924;2023-05-01T06:06:31;97176.22;;;18.42;100.00
8697;BME280;4385;48.848;8.924;2023-05-01T06:08:57;97177.94;;;18.41;100.00
8697;BME280;4385;48.848;8.924;2023-05-01T06:11:22;97183.00;;;18.43;100.00
8697;BME280;4385;48.848;8.924;2023-05-01T06:13:47;97177.06;;;18.42;100.00
8697;BME280;4385;48.848;8.924;2023-05-01T06:16:13;97169.41;;;18.42;100.00
8697;BME280;4385;48.848;8.924;2023-05-01T06:18:39;97177.88;;;18.43;100.00
8697;BME280;4385;48.848;8.924;2023-05-01T06:21:05;97185.53;;;18.43;100.00
8697;BME280;4385;48.848;8.924;2023-05-01T06:23:30;97182.22;;;18.41;100.00
8697;BME280;4385;48.848;8.924;2023-05-01T06:25:56;97176.28;;;18.40;100.00
8697;BME280;4385;48.848;8.924;2023-05-01T06:28:21;97177.97;;;18.40;100.00
8697;BME280;4385;48.848;8.924;2023-05-01T06:30:46;97171.22;;;18.39;100.00
8697;BME280;4385;48.848;8.924;2023-05-01T06:33:12;97172.91;;;18.38;100.00
8697;BME280;4385;48.848;8.924;2023-05-01T06:35:38;97179.75;;;18.38;100.00
8697;BME280;4385;48.848;8.924;2023-05-01T06:38:04;97179.75;;;18.38;100.00
8697;BME280;4385;48.848;8.924;2023-05-01T06:40:29;97179.75;;;18.38;100.00
8697;BME280;4385;48.848;8.924;2023-05-01T06:42:56;97179.75;;;18.38;100.00
8697;BME280;4385;48.848;8.924;2023-05-01T06:45:21;97176.34;;;18.37;100.00
8697;BME280;4385;48.848;8.924;2023-05-01T06:47:47;97187.41;;;18.38;100.00
8697;BME280;4385;48.848;8.924;2023-05-01T06:50:12;97184.84;;;18.38;100.00
8697;BME280;4385;48.848;8.924;2023-05-01T06:52:39;97191.63;;;18.39;100.00
8697;BME280;4385;48.848;8.924;2023-05-01T06:55:04;97189.94;;;18.38;100.00
8697;BME280;4385;48.848;8.924;2023-05-01T06:57:30;97194.16;;;18.39;100.00
8697;BME280;4385;48.848;8.924;2023-05-01T06:59:55;97196.72;;;18.39;100.00
8697;BME280;4385;48.848;8.924;2023-05-01T07:02:20;97193.31;;;18.38;100.00
8697;BME280;4385;48.848;8.924;2023-05-01T07:04:46;97199.28;;;18.39;100.00
8697;BME280;4385;48.848;8.924;2023-05-01T07:07:11;97194.16;;;18.39;100.00
8697;BME280;4385;48.848;8.924;2023-05-01T07:09:36;97201.81;;;18.39;100.00
8697;BME280;4385;48.848;8.924;2023-05-01T07:12:03;97196.72;;;18.39;100.00
8697;BME280;4385;48.848;8.924;2023-05-01T07:14:28;97197.56;;;18.39;100.00
8697;BME280;4385;48.848;8.924;2023-05-01T07:16:54;97190.78;;;18.38;100.00
8697;BME280;4385;48.848;8.924;2023-05-01T07:19:19;97196.72;;;18.39;100.00
8697;BME280;4385;48.848;8.924;2023-05-01T07:21:44;97190.78;;;18.38;100.00
8697;BME280;4385;48.848;8.924;2023-05-01T07:24:10;97188.25;;;18.37;100.00
8697;BME280;4385;48.848;8.924;2023-05-01T07:26:36;97192.50;;;18.38;100.00
8697;BME280;4385;48.848;8.924;2023-05-01T07:29:02;97192.50;;;18.38;100.00
8697;BME280;4385;48.848;8.924;2023-05-01T07:31:28;97190.81;;;18.37;100.00
8697;BME280;4385;48.848;8.924;2023-05-01T07:33:53;97189.94;;;18.38;100.00
8697;BME280;4385;48.848;8.924;2023-05-01T07:36:19;97195.06;;;18.38;100.00
8697;BME280;4385;48.848;8.924;2023-05-01T07:38:46;97189.94;;;18.38;100.00
8697;BME280;4385;48.848;8.924;2023-05-01T07:41:11;97188.25;;;18.37;100.00
8697;BME280;4385;48.848;8.924;2023-05-01T07:43:37;97184.00;;;18.37;100.00
8697;BME280;4385;48.848;8.924;2023-05-01T07:46:02;97176.34;;;18.37;100.00
8697;BME280;4385;48.848;8.924;2023-05-01T07:48:27;97178.91;;;18.37;100.00
8697;BME280;4385;48.848;8.924;2023-05-01T07:50:53;97177.19;;;18.38;100.00
8697;BME280;4385;48.848;8.924;2023-05-01T07:53:19;97176.34;;;18.37;100.00
8697;BME280;4385;48.848;8.924;2023-05-01T07:55:46;97176.31;;;18.39;100.00
8697;BME280;4385;48.848;8.924;2023-05-01T07:58:12;97165.25;;;18.38;100.00
8697;BME280;4385;48.848;8.924;2023-05-01T08:00:37;97175.47;;;18.38;100.00
8697;BME280;4385;48.848;8.924;2023-05-01T08:03:02;97174.66;;;18.38;100.00
8697;BME280;4385;48.848;8.924;2023-05-01T08:05:28;97173.81;;;18.37;100.00
8697;BME280;4385;48.848;8.924;2023-05-01T08:07:53;97171.25;;;18.37;100.00
8697;BME280;4385;48.848;8.924;2023-05-01T08:10:18;97170.34;;;18.38;100.00
8697;BME280;4385;48.848;8.924;2023-05-01T08:12:43;97178.00;;;18.38;100.00
8697;BME280;4385;48.848;8.924;2023-05-01T08:15:09;97182.31;;;18.38;100.00
8697;BME280;4385;48.848;8.924;2023-05-01T08:17:35;97181.41;;;18.39;100.00
8697;BME280;4385;48.848;8.924;2023-05-01T08:20:01;97177.97;;;18.40;100.00
8697;BME280;4385;48.848;8.924;2023-05-01T08:22:26;97173.72;;;18.40;100.00
8697;BME280;4385;48.848;8.924;2023-05-01T08:24:52;97173.72;;;18.40;100.00
8697;BME280;4385;48.848;8.924;2023-05-01T08:27:17;97177.97;;;18.40;100.00
8697;BME280;4385;48.848;8.924;2023-05-01T08:29:43;97170.28;;;18.41;100.00
8697;BME280;4385;48.848;8.924;2023-05-01T08:32:08;97175.38;;;18.41;100.00
8697;BME280;4385;48.848;8.924;2023-05-01T08:34:34;97171.13;;;18.42;100.00
8697;BME280;4385;48.848;8.924;2023-05-01T08:37:00;97167.69;;;18.43;100.00
8697;BME280;4385;48.848;8.924;2023-05-01T08:39:25;97168.56;;;18.42;100.00
8697;BME280;4385;48.848;8.924;2023-05-01T08:41:51;97163.44;;;18.43;100.00
8697;BME280;4385;48.848;8.924;2023-05-01T08:44:18;97164.25;;;18.46;100.00
8697;BME280;4385;48.848;8.924;2023-05-01T08:47:09;97170.97;;;18.48;100.00
8697;BME280;4385;48.848;8.924;2023-05-01T08:49:36;97170.03;;;18.51;100.00
8697;BME280;4385;48.848;8.924;2023-05-01T08:52:05;97171.69;;;18.53;100.00
8697;BME280;4385;48.848;8.924;2023-05-01T08:54:30;97168.25;;;18.54;100.00
8697;BME280;4385;48.848;8.924;2023-05-01T08:57:00;97170.69;;;18.57;100.00
8697;BME280;4385;48.848;8.924;2023-05-01T08:59:38;97167.25;;;18.59;100.00
8697;BME280;4385;48.848;8.924;2023-05-01T09:02:06;97166.41;;;18.60;100.00
8697;BME280;4385;48.848;8.924;2023-05-01T09:04:34;97168.91;;;18.61;100.00
8697;BME280;4385;48.848;8.924;2023-05-01T09:07:00;97162.91;;;18.62;100.00
8697;BME280;4385;48.848;8.924;2023-05-01T09:09:29;97169.66;;;18.65;100.00
8697;BME280;4385;48.848;8.924;2023-05-01T09:12:43;97168.78;;;18.66;100.00
8697;BME280;4385;48.848;8.924;2023-05-01T09:14:43;97173.81;;;18.69;100.00
8697;BME280;4385;48.848;8.924;2023-05-01T09:17:10;97166.97;;;18.69;100.00
8697;BME280;4385;48.848;8.924;2023-05-01T09:19:36;97166.16;;;18.69;100.00
8697;BME280;4385;48.848;8.924;2023-05-01T09:22:01;97169.47;;;18.71;100.00
8697;BME280;4385;48.848;8.924;2023-05-01T09:24:27;97168.63;;;18.72;100.00
8697;BME280;4385;48.848;8.924;2023-05-01T09:26:52;97171.16;;;18.72;100.00
8697;BME280;4385;48.848;8.924;2023-05-01T09:29:37;97166.84;;;18.74;100.00
8697;BME280;4385;48.848;8.924;2023-05-01T09:32:23;97171.94;;;18.74;100.00
8697;BME280;4385;48.848;8.924;2023-05-01T09:34:50;97170.22;;;18.75;100.00
8697;BME280;4385;48.848;8.924;2023-05-01T09:37:32;97160.88;;;18.75;100.00
8697;BME280;4385;48.848;8.924;2023-05-01T09:40:08;97163.34;;;18.78;100.00
8697;BME280;4385;48.848;8.924;2023-05-01T09:42:36;97167.53;;;18.79;100.00
8697;BME280;4385;48.848;8.924;2023-05-01T09:45:10;97173.41;;;18.83;100.00
8697;BME280;4385;48.848;8.924;2023-05-01T09:47:36;97168.31;;;18.83;100.00
8697;BME280;4385;48.848;8.924;2023-05-01T09:50:02;97174.22;;;18.84;100.00
8697;BME280;4385;48.848;8.924;2023-05-01T09:52:29;97173.38;;;18.85;100.00
8697;BME280;4385;48.848;8.924;2023-05-01T09:55:11;97172.47;;;18.86;100.00
8697;BME280;4385;48.848;8.924;2023-05-01T09:57:38;97172.38;;;18.89;100.00
8697;BME280;4385;48.848;8.924;2023-05-01T10:00:03;97174.94;;;18.89;100.00
8697;BME280;4385;48.848;8.924;2023-05-01T10:02:32;97177.44;;;18.90;100.00
8697;BME280;4385;48.848;8.924;2023-05-01T10:04:58;97179.97;;;18.92;100.00
8697;BME280;4385;48.848;8.924;2023-05-01T10:07:24;97184.16;;;18.93;100.00
8697;BME280;4385;48.848;8.924;2023-05-01T10:09:50;97173.91;;;18.94;100.00
8697;BME280;4385;48.848;8.924;2023-05-01T10:12:26;97181.53;;;18.96;100.00
8697;BME280;4385;48.848;8.924;2023-05-01T10:14:53;97177.28;;;18.97;100.00
8697;BME280;4385;48.848;8.924;2023-05-01T10:17:19;97177.22;;;18.98;100.00
8697;BME280;4385;48.848;8.924;2023-05-01T10:19:44;97178.88;;;18.99;100.00
8697;BME280;4385;48.848;8.924;2023-05-01T10:22:10;97175.47;;;19.00;100.00
8697;BME280;4385;48.848;8.924;2023-05-01T10:24:36;97183.91;;;19.02;100.00
8697;BME280;4385;48.848;8.924;2023-05-01T10:27:03;97175.44;;;19.02;100.00
8697;BME280;4385;48.848;8.924;2023-05-01T10:29:30;97181.31;;;19.04;100.00
8697;BME280;4385;48.848;8.924;2023-05-01T10:31:58;97184.72;;;19.04;100.00
8697;BME280;4385;48.848;8.924;2023-05-01T10:34:25;97179.50;;;19.07;100.00
8697;BME280;4385;48.848;8.924;2023-05-01T10:36:59;97176.09;;;19.09;100.00
8697;BME280;4385;48.848;8.924;2023-05-01T10:39:32;97188.00;;;19.10;100.00
8697;BME280;4385;48.848;8.924;2023-05-01T10:42:08;97181.09;;;19.12;100.00
8697;BME280;4385;48.848;8.924;2023-05-01T10:44:41;97183.63;;;19.13;100.00
8697;BME280;4385;48.848;8.924;2023-05-01T10:50:06;97176.84;;;19.12;100.00
8697;BME280;4385;48.848;8.924;2023-05-01T10:55:45;97185.44;;;19.10;100.00
8697;BME280;4385;48.848;8.924;2023-05-01T10:58:11;97188.78;;;19.12;100.00
8697;BME280;4385;48.848;8.924;2023-05-01T11:00:38;97182.84;;;19.11;100.00
8697;BME280;4385;48.848;8.924;2023-05-01T11:08:32;97176.84;;;19.12;100.00
8697;BME280;4385;48.848;8.924;2023-05-01T11:21:48;97165.59;;;19.18;100.00
8697;BME280;4385;48.848;8.924;2023-05-01T11:24:15;97166.44;;;19.18;100.00
8697;BME280;4385;48.848;8.924;2023-05-01T11:26:42;97170.63;;;19.21;100.00
8697;BME280;4385;48.848;8.924;2023-05-01T11:29:09;97164.66;;;19.22;100.00
8697;BME280;4385;48.848;8.924;2023-05-01T11:31:36;97173.06;;;19.24;100.00
8697;BME280;4385;48.848;8.924;2023-05-01T11:34:02;97167.09;;;19.25;100.00
8697;BME280;4385;48.848;8.924;2023-05-01T11:36:28;97160.22;;;19.27;100.00
8697;BME280;4385;48.848;8.924;2023-05-01T11:38:56;97162.75;;;19.27;100.00
8697;BME280;4385;48.848;8.924;2023-05-01T11:41:23;97156.78;;;19.28;100.00
8697;BME280;4385;48.848;8.924;2023-05-01T11:43:50;97166.13;;;19.29;100.00
8697;BME280;4385;48.848;8.924;2023-05-01T11:46:26;97161.00;;;19.29;100.00
8697;BME280;4385;48.848;8.924;2023-05-01T11:48:53;97163.47;;;19.33;100.00
8697;BME280;4385;48.848;8.924;2023-05-01T11:51:18;97158.34;;;19.33;100.00
8697;BME280;4385;48.848;8.924;2023-05-01T11:54:09;97159.22;;;19.33;100.00
8697;BME280;4385;48.848;8.924;2023-05-01T11:56:36;97149.81;;;19.34;100.00
8697;BME280;4385;48.848;8.924;2023-05-01T11:59:15;97154.06;;;19.35;100.00
8697;BME280;4385;48.848;8.924;2023-05-01T12:01:42;97158.25;;;19.36;100.00
8697;BME280;4385;48.848;8.924;2023-05-01T12:04:09;97148.03;;;19.36;100.00
8697;BME280;4385;48.848;8.924;2023-05-01T12:06:39;97148.91;;;19.36;100.00
8697;BME280;4385;48.848;8.924;2023-05-01T12:09:09;97153.06;;;19.39;100.00
8697;BME280;4385;48.848;8.924;2023-05-01T12:11:35;97148.78;;;19.39;100.00
8697;BME280;4385;48.848;8.924;2023-05-01T12:14:01;97146.19;;;19.41;100.00
8697;BME280;4385;48.848;8.924;2023-05-01T12:16:26;97145.28;;;19.42;100.00
8697;BME280;4385;48.848;8.924;2023-05-01T12:18:54;97151.22;;;19.44;100.00
8697;BME280;4385;48.848;8.924;2023-05-01T12:21:19;97154.53;;;19.46;100.00
8697;BME280;4385;48.848;8.924;2023-05-01T12:23:45;97160.44;;;19.48;100.00
8697;BME280;4385;48.848;8.924;2023-05-01T12:26:15;97152.78;;;19.48;100.00
8697;BME280;4385;48.848;8.924;2023-05-01T12:29:01;97162.09;;;19.49;100.00
8697;BME280;4385;48.848;8.924;2023-05-01T12:31:28;97161.22;;;19.50;100.00
8697;BME280;4385;48.848;8.924;2023-05-01T12:36:26;97157.78;;;19.51;100.00
8697;BME280;4385;48.848;8.924;2023-05-01T12:38:57;97162.03;;;19.51;100.00
8697;BME280;4385;48.848;8.924;2023-05-01T12:44:26;97158.63;;;19.52;100.00
8697;BME280;4385;48.848;8.924;2023-05-01T12:46:54;97156.06;;;19.52;100.00
8697;BME280;4385;48.848;8.924;2023-05-01T12:49:20;97162.03;;;19.51;100.00
8697;BME280;4385;48.848;8.924;2023-05-01T12:51:50;97156.13;;;19.50;100.00
8697;BME280;4385;48.848;8.924;2023-05-01T12:54:23;97157.78;;;19.51;100.00
8697;BME280;4385;48.848;8.924;2023-05-01T12:56:49;97158.63;;;19.52;100.00
8697;BME280;4385;48.848;8.924;2023-05-01T12:59:25;97150.16;;;19.50;100.00
8697;BME280;4385;48.848;8.924;2023-05-01T13:02:01;97156.97;;;19.49;100.00
8697;BME280;4385;48.848;8.924;2023-05-01T13:04:27;97154.44;;;19.49;100.00
8697;BME280;4385;48.848;8.924;2023-05-01T13:06:54;97154.44;;;19.49;100.00
8697;BME280;4385;48.848;8.924;2023-05-01T13:09:21;97155.22;;;19.51;100.00
8697;BME280;4385;48.848;8.924;2023-05-01T13:11:58;97151.00;;;19.50;100.00
8697;BME280;4385;48.848;8.924;2023-05-01T13:14:24;97145.00;;;19.51;100.00
8697;BME280;4385;48.848;8.924;2023-05-01T13:16:49;97144.13;;;19.52;100.00
8697;BME280;4385;48.848;8.924;2023-05-01T13:19:25;97136.44;;;19.52;100.00
8697;BME280;4385;48.848;8.924;2023-05-01T13:21:52;97138.94;;;19.54;100.00
8697;BME280;4385;48.848;8.924;2023-05-01T13:24:17;97139.00;;;19.52;100.00
8697;BME280;4385;48.848;8.924;2023-05-01T13:26:43;97144.13;;;19.52;100.00
8697;BME280;4385;48.848;8.924;2023-05-01T13:29:13;97138.19;;;19.52;100.00
8697;BME280;4385;48.848;8.924;2023-05-01T13:31:42;97141.59;;;19.51;100.00
8697;BME280;4385;48.848;8.924;2023-05-01T13:34:08;97135.69;;;19.50;100.00
8697;BME280;4385;48.848;8.924;2023-05-01T13:36:33;97143.34;;;19.50;100.00
8697;BME280;4385;48.848;8.924;2023-05-01T13:38:59;97139.09;;;19.49;100.00
8697;BME280;4385;48.848;8.924;2023-05-01T13:41:25;97133.13;;;19.50;100.00
8697;BME280;4385;48.848;8.924;2023-05-01T13:43:53;97133.94;;;19.51;100.00
8697;BME280;4385;48.848;8.924;2023-05-01T13:46:20;97134.78;;;19.51;100.00
8697;BME280;4385;48.848;8.924;2023-05-01T13:48:46;97132.22;;;19.51;100.00
8697;BME280;4385;48.848;8.924;2023-05-01T13:51:12;97132.22;;;19.51;100.00